Airfield :
LOGIN :

Register | Disclaimer

   EN    FR    IT 

 










Legend :    VFR   Marginal VFR   IFR   Intensive IFR   Very Intensive IFR
Visi :
Ceiling :
>= 8 km
>= 3000ft
5 to 8 km
1000 to 3000 ft
1500m to 5 km
500 to 1000 ft
800 to 1500m
200 to 500 ft
< 800m
< 200 ft
Symbols :   Thunderstorms  Fog  Heavy snow  Heavy precipitations  Wind > 20 kt
SIGMETs :     Misc.  Thunderstorms  Icing  Turbulence  Mountain Waves  Volcanic Ashes






- Airport Elevation : 1079 ft


ETIK - Illesheim Air Base

CURRENT METAR :
  • 200626Z AUTO 00000KT 0800 R24/0900V1000 FZFG VV001 M01/M01 A3006 RMK AO2 SLP198 $

EXPIRED METARs :
  • 200556Z AUTO 00000KT 0600 R24/0750 FZFG VV001 M01/M01 A3006 RMK AO2 FZDZE04FZDZB05E19 SLP196 P0000 60000 T10121012 11005 21036 55002 $
  • 200519Z AUTO 00000KT 0600 R24/0700V0800 FZFG VV001 M01/M01 A3005 RMK AO2 FZDZE04FZDZB05E19 SLP193 $
  • 200505Z AUTO 26003KT 0600 R24/0700V0800 -FZDZ FZFG VV001 M01/M01 A3005 RMK AO2 FZDZE04FZDZB05 SLP193 $
  • 200456Z AUTO 00000KT 0600 R24/0750V0800 -FZDZ FZFG VV001 M01/M01 A3005 RMK AO2 FZDZB09E22FZDZB51 SLP193 P0000 T10101010 $
  • 200422Z AUTO 00000KT 0600 R24/0550V0650 FZFG VV001 M01/M01 A3006 RMK AO2 FZDZB09E22 SLP196 $
  • 200409Z AUTO 28003KT 0400 R24/0550V0600 -FZDZ FZFG VV001 M01/M01 A3006 RMK AO2 FZDZB09 SLP196 $
  • 200356Z AUTO 31003KT 0400 R24/0500V0600 FZFG VV001 M01/M01 A3006 RMK AO2 FZDZB05E24 SLP196 P0000 T10071007 $

TAF AMD TAF ETIK
Valid from the 20 at 05:00 until the 21 at 05:00 UTC


2005/2105 VRB06KT 0600 FG BKN004 QNH3003INS
BECMG 2009/2010 VRB06KT 9999 NSW BKN020 QNH3000INS
BECMG 2012/2013 07009KT 9999 BKN020 QNH2994INS
BECMG 2019/2020 VRB06KT 8000 BR OVC015 QNH2988INS TX05/2013Z TNM03/2003Z



MET'MAP, your aeronautical weather chart ! - Copyright ORBIFLY December 2007 - Disclaimer

ORBIFLY MET'MAP TEAM :

Programming & Development : Alexandra Zaïnal
Concept & Development : Baudouin d'Aumeries
Co-Development & Prog : Marc-Olivier Méhu
Technical & hardware support : Manuel Goepfert

Contact : metmap@orbifly.com




SOURCES & CREDITS :

   NOAA